Time;durP1;ratioP1;P1;durP2;ratioP2;P2;SDS_P1;SDS_P2;PMS_P1;PMS_P2;Temp;Humidity;BMP_temperature;BMP_pressure;BME280_temperature;BME280_humidity;BME280_pressure;Samples;Min_cycle;Max_cycle;Signal;HPM_P1;HPM_P2
2022/04/04 00:01:22;;;;;;;12.40;3.80;;;;;;;-0.57;75.49;98868.17;108196;1287;137392;-59
2022/04/04 00:03:51;;;;;;;6.00;4.30;;;;;;;-0.57;75.55;98871.46;108298;1286;23284;-60
2022/04/04 00:06:34;;;;;;;8.80;4.40;;;;;;;-0.58;75.12;98872.05;108193;1287;138622;-59
2022/04/04 00:09:03;;;;;;;6.10;4.30;;;;;;;-0.59;75.35;98871.94;108281;1287;22445;-59
2022/04/04 00:11:31;;;;;;;6.60;4.20;;;;;;;-0.60;74.90;98872.64;108158;1287;137889;-60
2022/04/04 00:14:07;;;;;;;7.60;4.80;;;;;;;-0.62;74.81;98875.13;108146;1287;23256;-60
2022/04/04 00:16:36;;;;;;;8.00;5.10;;;;;;;-0.66;75.04;98880.83;108271;1287;22506;-60
2022/04/04 00:19:24;;;;;;;5.60;3.90;;;;;;;-0.70;75.17;98881.23;108140;1287;136644;-60
2022/04/04 00:21:53;;;;;;;8.70;4.70;;;;;;;-0.72;75.07;98884.15;108131;1287;22467;-60
2022/04/04 00:24:21;;;;;;;5.60;3.80;;;;;;;-0.73;75.25;98889.88;108139;1286;136899;-60
2022/04/04 00:27:02;;;;;;;7.00;4.20;;;;;;;-0.76;75.32;98886.70;108580;1283;23322;-59
2022/04/04 00:29:30;;;;;;;5.80;3.90;;;;;;;-0.77;75.23;98888.63;108291;1284;138521;-60
2022/04/04 00:31:58;;;;;;;6.90;4.00;;;;;;;-0.78;75.32;98892.86;108408;1284;23428;-59
2022/04/04 00:34:42;;;;;;;5.60;3.60;;;;;;;-0.77;75.67;98895.91;108562;1284;22577;-60
2022/04/04 00:37:11;;;;;;;5.00;3.80;;;;;;;-0.76;75.28;98898.52;108378;1284;137920;-60
2022/04/04 00:39:39;;;;;;;8.00;4.40;;;;;;;-0.77;75.32;98900.85;108355;1285;23087;-59
2022/04/04 00:42:07;;;;;;;7.20;4.40;;;;;;;-0.76;75.53;98908.67;108340;1284;137886;-60
2022/04/04 00:44:35;;;;;;;7.00;4.50;;;;;;;-0.78;75.35;98907.30;108419;1284;22737;-60
2022/04/04 00:47:04;;;;;;;7.30;4.50;;;;;;;-0.80;75.32;98906.48;108300;1283;137785;-59
2022/04/04 00:49:32;;;;;;;5.00;4.10;;;;;;;-0.82;74.91;98911.02;108415;1284;23513;-60
2022/04/04 00:52:01;;;;;;;5.20;4.00;;;;;;;-0.84;75.11;98911.87;108448;1284;22245;-60
2022/04/04 00:54:29;;;;;;;7.20;4.40;;;;;;;-0.87;74.96;98913.45;108340;1283;137113;-60
2022/04/04 00:56:57;;;;;;;7.10;4.90;;;;;;;-0.88;75.33;98913.69;108389;1283;22370;-60
2022/04/04 00:59:25;;;;;;;5.70;3.40;;;;;;;-0.90;75.18;98913.48;108482;1284;138169;-60
2022/04/04 01:01:54;;;;;;;9.50;3.90;;;;;;;-0.92;74.93;98914.00;108451;1284;22417;-60
2022/04/04 01:04:22;;;;;;;5.50;3.70;;;;;;;-0.95;75.13;98916.15;108394;1284;22523;-59
2022/04/04 01:06:53;;;;;;;10.30;3.70;;;;;;;-0.96;75.45;98921.09;108326;1284;139331;-60
2022/04/04 01:09:21;;;;;;;5.60;3.60;;;;;;;-0.97;75.36;98919.77;108435;1283;23005;-60
2022/04/04 01:12:09;;;;;;;6.30;4.30;;;;;;;-0.97;75.32;98922.88;108539;1284;136939;-60
2022/04/04 01:14:48;;;;;;;7.50;4.80;;;;;;;-0.98;75.84;98920.70;108452;1284;22420;-60
2022/04/04 01:17:19;;;;;;;7.20;4.50;;;;;;;-0.98;75.53;98925.23;108414;1283;137931;-59
2022/04/04 01:19:47;;;;;;;7.20;4.40;;;;;;;-0.99;75.43;98924.31;108414;1284;22273;-60
2022/04/04 01:22:15;;;;;;;8.20;4.50;;;;;;;-1.02;75.70;98921.48;108365;1284;22442;-60
2022/04/04 01:24:44;;;;;;;7.90;4.40;;;;;;;-1.08;75.80;98921.90;108537;1283;136818;-60
2022/04/04 01:27:12;;;;;;;6.90;4.60;;;;;;;-1.10;75.81;98924.43;108455;1283;22512;-60
2022/04/04 01:29:41;;;;;;;7.80;4.30;;;;;;;-1.12;75.85;98926.39;108395;1284;137511;-59
2022/04/04 01:32:09;;;;;;;8.70;4.70;;;;;;;-1.15;75.91;98927.94;108462;1284;22411;-59
2022/04/04 01:34:39;;;;;;;8.00;4.50;;;;;;;-1.18;75.75;98926.76;108406;1284;22431;-59
2022/04/04 01:37:08;;;;;;;6.70;3.90;;;;;;;-1.21;75.68;98932.31;108337;1284;139357;-59
2022/04/04 01:39:37;;;;;;;7.40;3.80;;;;;;;-1.23;75.93;98927.73;108464;1284;23528;-59
2022/04/04 01:42:06;;;;;;;7.60;4.30;;;;;;;-1.23;76.13;98927.08;108554;1283;137449;-59
2022/04/04 01:44:35;;;;;;;6.20;4.00;;;;;;;-1.25;75.92;98929.40;108470;1284;22413;-60
2022/04/04 01:47:05;;;;;;;7.50;4.30;;;;;;;-1.23;76.27;98932.14;108317;1284;140502;-60
2022/04/04 01:49:33;;;;;;;6.80;4.30;;;;;;;-1.23;76.24;98930.29;108654;1283;22478;-59
2022/04/04 01:52:01;;;;;;;6.30;4.50;;;;;;;-1.24;76.42;98934.84;108443;1281;22514;-60
2022/04/04 01:54:30;;;;;;;9.10;5.30;;;;;;;-1.25;76.25;98938.16;108328;1284;138499;-59
2022/04/04 01:57:07;;;;;;;8.10;4.80;;;;;;;-1.27;76.30;98934.16;108428;1283;22435;-62
2022/04/04 01:59:35;;;;;;;12.40;5.10;;;;;;;-1.29;76.42;98938.75;108410;1283;138644;-62
2022/04/04 02:02:04;;;;;;;8.60;4.90;;;;;;;-1.32;76.42;98943.77;108452;1284;22657;-62
2022/04/04 02:04:32;;;;;;;8.20;4.90;;;;;;;-1.36;76.34;98944.10;108292;1284;22265;-63
2022/04/04 02:07:01;;;;;;;9.80;5.90;;;;;;;-1.37;76.54;98949.43;108341;1283;137850;-62
2022/04/04 02:09:31;;;;;;;19.40;9.70;;;;;;;-1.40;76.55;98951.55;108442;1284;22450;-62
2022/04/04 02:12:00;;;;;;;34.70;17.00;;;;;;;-1.41;76.72;98946.73;108531;1283;141509;-62
2022/04/04 02:14:28;;;;;;;17.80;9.20;;;;;;;-1.42;76.82;98953.38;108425;1284;22490;-62
2022/04/04 02:16:56;;;;;;;17.30;9.20;;;;;;;-1.44;76.92;98951.44;108459;1284;22521;-62
2022/04/04 02:19:24;;;;;;;17.90;9.90;;;;;;;-1.44;77.06;98953.08;108259;1284;137159;-62
2022/04/04 02:21:52;;;;;;;20.30;10.40;;;;;;;-1.44;76.97;98953.50;108458;1283;22539;-63
2022/04/04 02:24:21;;;;;;;26.90;15.20;;;;;;;-1.45;76.99;98951.62;108551;1283;137374;-62
2022/04/04 02:26:50;;;;;;;45.60;22.60;;;;;;;-1.46;77.06;98958.23;105345;1284;22607;-62
2022/04/04 02:29:18;;;;;;;35.70;18.00;;;;;;;-1.49;77.08;98959.98;108296;1284;138816;-62
2022/04/04 02:31:47;;;;;;;49.80;22.50;;;;;;;-1.51;77.12;98963.81;108435;1284;23212;-62
2022/04/04 02:34:15;;;;;;;23.30;12.80;;;;;;;-1.54;77.23;98970.20;108625;1282;23198;-62
2022/04/04 02:36:44;;;;;;;22.00;12.40;;;;;;;-1.57;77.19;98971.65;108579;1282;137678;-62
2022/04/04 02:39:12;;;;;;;20.10;9.10;;;;;;;-1.59;77.20;98970.37;108661;1282;22415;-62
2022/04/04 02:41:40;;;;;;;16.10;8.40;;;;;;;-1.63;77.18;98973.55;108539;1282;139318;-62
2022/04/04 02:44:08;;;;;;;25.60;13.80;;;;;;;-1.65;77.25;98977.23;108671;1282;22530;-62
2022/04/04 02:46:36;;;;;;;29.00;15.00;;;;;;;-1.67;77.52;98979.78;108664;1282;22590;-62
2022/04/04 02:49:05;;;;;;;31.70;15.10;;;;;;;-1.68;77.52;98980.23;108545;1282;138942;-62
2022/04/04 02:51:33;;;;;;;29.80;14.70;;;;;;;-1.67;77.43;98979.09;108623;1282;22472;-62
2022/04/04 02:54:01;;;;;;;30.50;15.40;;;;;;;-1.67;77.63;98985.70;108568;1282;137312;-62
2022/04/04 02:56:31;;;;;;;32.50;15.30;;;;;;;-1.68;77.66;98989.89;106165;1282;24257;-60
2022/04/04 02:59:00;;;;;;;25.20;12.00;;;;;;;-1.70;77.55;98992.77;108573;1282;23685;-60
2022/04/04 03:01:29;;;;;;;37.00;17.70;;;;;;;-1.73;77.67;98992.11;108481;1284;138126;-60
2022/04/04 03:03:58;;;;;;;23.40;12.20;;;;;;;-1.75;77.70;98994.52;108643;1282;22448;-60
2022/04/04 03:06:26;;;;;;;13.90;7.90;;;;;;;-1.78;77.76;98994.70;108578;1282;138142;-59
2022/04/04 03:08:55;;;;;;;11.20;7.10;;;;;;;-1.80;77.68;98997.06;108640;1282;22348;-59
2022/04/04 03:11:40;;;;;;;11.00;7.10;;;;;;;-1.84;77.62;99003.05;108587;1282;138705;-59
2022/04/04 03:14:08;;;;;;;17.00;8.70;;;;;;;-1.86;77.91;99003.31;108659;1282;22449;-59
2022/04/04 03:16:36;;;;;;;14.20;9.30;;;;;;;-1.88;77.93;99007.41;108644;1282;22326;-60
2022/04/04 03:19:05;;;;;;;18.40;12.20;;;;;;;-1.89;77.57;99011.20;108548;1282;138697;-59
2022/04/04 03:21:33;;;;;;;19.10;10.60;;;;;;;-1.91;77.86;99015.56;108644;1282;22540;-59
2022/04/04 03:24:02;;;;;;;17.40;11.50;;;;;;;-1.93;78.04;99017.02;108531;1282;138766;-60
2022/04/04 03:26:32;;;;;;;23.50;14.50;;;;;;;-1.94;77.99;99022.88;108623;1282;22539;-59
2022/04/04 03:29:01;;;;;;;17.30;9.90;;;;;;;-1.93;77.94;99024.86;108616;1282;23729;-60
2022/04/04 03:31:29;;;;;;;25.00;13.20;;;;;;;-1.93;78.04;99025.16;108459;1282;138042;-60
2022/04/04 03:33:59;;;;;;;21.10;11.50;;;;;;;-1.93;78.11;99026.80;108650;1282;22579;-60
2022/04/04 03:36:32;;;;;;;16.70;9.90;;;;;;;-1.94;77.80;99029.54;108473;1282;137849;-59
2022/04/04 03:39:00;;;;;;;11.60;8.40;;;;;;;-1.95;78.01;99034.20;108536;1284;23165;-60
2022/04/04 03:41:29;;;;;;;9.10;7.00;;;;;;;-1.97;77.79;99040.80;108467;1282;138016;-59
2022/04/04 03:43:57;;;;;;;9.50;6.50;;;;;;;-1.99;77.79;99042.63;108455;1284;22447;-60
2022/04/04 03:46:26;;;;;;;11.60;7.10;;;;;;;-2.02;77.87;99046.80;108586;1282;22509;-60
2022/04/04 03:48:54;;;;;;;9.70;5.60;;;;;;;-2.04;77.90;99054.98;108477;1282;139506;-60
2022/04/04 03:51:22;;;;;;;8.90;5.60;;;;;;;-2.04;77.93;99052.60;108593;1281;22441;-59
2022/04/04 03:53:51;;;;;;;8.50;5.30;;;;;;;-2.03;77.90;99058.81;108452;1281;138204;-59
2022/04/04 03:56:20;;;;;;;7.20;5.00;;;;;;;-2.02;77.89;99062.30;106428;1282;22788;-60
2022/04/04 03:58:51;;;;;;;6.70;4.70;;;;;;;-2.01;78.01;99065.21;108552;1282;23147;-60
2022/04/04 04:01:19;;;;;;;7.30;5.00;;;;;;;-2.01;77.79;99067.52;108492;1282;138631;-59
2022/04/04 04:03:47;;;;;;;8.10;5.40;;;;;;;-2.01;77.76;99071.34;108541;1282;22455;-60
2022/04/04 04:06:16;;;;;;;9.40;5.60;;;;;;;-1.99;77.80;99070.13;108502;1282;139393;-59
2022/04/04 04:08:45;;;;;;;9.50;6.10;;;;;;;-1.98;77.86;99072.45;108550;1282;22448;-59
2022/04/04 04:11:15;;;;;;;8.90;5.10;;;;;;;-1.95;77.84;99077.48;108438;1282;138284;-60
2022/04/04 04:14:03;;;;;;;9.40;5.80;;;;;;;-1.91;77.69;99079.19;108575;1282;22982;-60
2022/04/04 04:16:32;;;;;;;9.20;5.90;;;;;;;-1.84;77.77;99083.48;108586;1282;22487;-59
2022/04/04 04:19:00;;;;;;;8.10;5.80;;;;;;;-1.74;77.62;99078.38;108447;1282;137892;-59
2022/04/04 04:21:28;;;;;;;12.00;6.90;;;;;;;-1.61;77.57;99082.48;108588;1282;23471;-60
2022/04/04 04:23:58;;;;;;;19.10;9.00;;;;;;;-1.48;77.23;99081.63;108480;1282;138195;-59
2022/04/04 04:26:26;;;;;;;15.60;8.10;;;;;;;-1.31;77.17;99084.02;106256;1282;22984;-59
2022/04/04 04:28:55;;;;;;;11.70;6.50;;;;;;;-1.15;76.65;99088.94;108584;1282;23735;-59
2022/04/04 04:31:23;;;;;;;10.90;6.40;;;;;;;-1.08;76.04;99092.05;108488;1282;139195;-59
2022/04/04 04:33:51;;;;;;;9.70;6.40;;;;;;;-0.99;75.95;99090.49;108559;1282;22462;-60
2022/04/04 04:36:20;;;;;;;11.20;6.60;;;;;;;-0.88;75.83;99093.00;108474;1281;137159;-60
2022/04/04 04:38:48;;;;;;;8.80;5.90;;;;;;;-0.76;74.89;99098.52;108401;1284;22443;-59
2022/04/04 04:41:16;;;;;;;12.50;5.90;;;;;;;-0.64;75.10;99101.67;108481;1281;138188;-60
2022/04/04 04:43:45;;;;;;;14.10;6.90;;;;;;;-0.50;74.55;99102.64;108603;1282;22402;-60
2022/04/04 04:46:13;;;;;;;12.20;6.80;;;;;;;-0.37;73.83;99105.59;108585;1282;22491;-60
2022/04/04 04:48:42;;;;;;;14.90;6.50;;;;;;;-0.29;73.26;99106.45;108466;1282;137810;-60
2022/04/04 04:51:10;;;;;;;9.80;6.10;;;;;;;-0.16;73.33;99106.46;108592;1282;22429;-60
2022/04/04 04:53:38;;;;;;;11.50;7.00;;;;;;;0.04;73.17;99114.16;108509;1281;138461;-60
2022/04/04 04:56:06;;;;;;;14.60;6.40;;;;;;;0.24;72.45;99116.00;108638;1282;22441;-59
2022/04/04 04:58:35;;;;;;;8.70;5.50;;;;;;;0.42;72.15;99118.48;108596;1281;23233;-60
2022/04/04 05:01:03;;;;;;;10.40;6.10;;;;;;;0.58;71.67;99118.81;108481;1282;138011;-60
2022/04/04 05:03:33;;;;;;;10.00;5.70;;;;;;;0.72;71.33;99118.59;108592;1282;23267;-60
2022/04/04 05:06:02;;;;;;;11.40;6.60;;;;;;;0.86;70.59;99124.25;108446;1281;137279;-60
2022/04/04 05:08:31;;;;;;;10.70;5.60;;;;;;;0.97;70.02;99126.45;108587;1282;22394;-60
2022/04/04 05:11:00;;;;;;;9.00;5.90;;;;;;;1.08;69.70;99129.79;108592;1282;22467;-60
2022/04/04 05:13:38;;;;;;;9.50;6.10;;;;;;;1.16;69.13;99136.23;108518;1282;136939;-60
2022/04/04 05:16:28;;;;;;;;;;;;;;;1.23;68.45;99138.62;108595;1281;22464;-60
2022/04/04 05:18:58;;;;;;;13.50;6.70;;;;;;;1.23;67.70;99142.79;108478;1282;123477;-60
2022/04/04 05:21:27;;;;;;;8.30;5.90;;;;;;;1.17;67.59;99143.47;108533;1281;22516;-60
2022/04/04 05:23:55;;;;;;;9.60;6.00;;;;;;;1.18;67.73;99149.83;108449;1282;138220;-60
2022/04/04 05:26:23;;;;;;;10.50;6.70;;;;;;;1.18;67.25;99149.75;108637;1282;22413;-60
2022/04/04 05:28:52;;;;;;;7.50;5.30;;;;;;;1.16;67.80;99149.84;108602;1282;22542;-60
2022/04/04 05:31:20;;;;;;;8.60;5.20;;;;;;;1.19;67.88;99152.44;108478;1282;137892;-60
2022/04/04 05:33:49;;;;;;;8.80;5.30;;;;;;;1.21;67.57;99155.73;108574;1280;23239;-60
2022/04/04 05:36:20;;;;;;;7.00;4.60;;;;;;;1.21;67.08;99159.20;108469;1282;137476;-60
2022/04/04 05:38:50;;;;;;;10.60;5.70;;;;;;;1.18;67.27;99160.11;108478;1282;22531;-60
2022/04/04 05:41:18;;;;;;;11.90;5.60;;;;;;;1.18;67.28;99161.52;108483;1282;138613;-60
2022/04/04 05:43:47;;;;;;;7.60;5.00;;;;;;;1.18;67.45;99165.07;108642;1281;22388;-59
2022/04/04 05:46:16;;;;;;;7.60;5.50;;;;;;;1.16;67.03;99166.77;108580;1281;22392;-59
2022/04/04 05:48:45;;;;;;;9.00;4.80;;;;;;;1.12;67.00;99165.78;108500;1282;137506;-60
2022/04/04 05:51:16;;;;;;;9.50;6.50;;;;;;;1.06;66.65;99167.42;108608;1282;22571;-60
2022/04/04 05:53:45;;;;;;;9.20;5.30;;;;;;;0.93;66.49;99172.98;108518;1282;137181;-60
2022/04/04 05:56:13;;;;;;;8.50;5.50;;;;;;;0.87;66.93;99173.27;108611;1282;22371;-60
2022/04/04 05:58:41;;;;;;;8.30;5.10;;;;;;;0.84;67.48;99178.80;108527;1282;22554;-60
2022/04/04 06:01:09;;;;;;;7.40;5.30;;;;;;;0.86;67.75;99181.40;108517;1282;137249;-60
2022/04/04 06:03:38;;;;;;;10.30;5.80;;;;;;;0.87;67.56;99186.58;108601;1282;23341;-60
2022/04/04 06:06:06;;;;;;;7.90;5.40;;;;;;;0.87;67.51;99185.71;108511;1281;137240;-60
2022/04/04 06:08:36;;;;;;;7.20;5.40;;;;;;;0.87;67.36;99184.48;108584;1282;22421;-60
2022/04/04 06:11:24;;;;;;;;;;;;;;;0.88;67.14;99191.45;108514;1282;139154;-60
2022/04/04 06:13:52;;;;;;;7.20;4.80;;;;;;;0.90;67.28;99192.24;108629;1282;22456;-60
2022/04/04 06:16:20;;;;;;;8.60;5.40;;;;;;;0.93;67.25;99191.59;108617;1282;22560;-60
2022/04/04 06:19:10;;;;;;;10.10;5.50;;;;;;;0.94;67.18;99196.52;108449;1282;137078;-60
2022/04/04 06:21:39;;;;;;;8.60;5.00;;;;;;;0.99;67.63;99195.20;108610;1281;23408;-60
2022/04/04 06:24:07;;;;;;;8.80;5.70;;;;;;;1.03;66.83;99198.48;108504;1282;138492;-61
2022/04/04 06:26:36;;;;;;;9.00;6.10;;;;;;;1.04;66.83;99201.51;108620;1280;22554;-61
2022/04/04 06:29:04;;;;;;;8.60;5.60;;;;;;;1.08;66.94;99201.02;109417;1274;22446;-61
2022/04/04 06:31:32;;;;;;;10.80;5.40;;;;;;;1.12;66.51;99206.20;109314;1274;137966;-60
2022/04/04 06:34:04;;;;;;;9.00;5.30;;;;;;;1.14;66.43;99206.81;109365;1274;22262;-61
2022/04/04 06:36:32;;;;;;;10.30;5.90;;;;;;;1.15;66.30;99207.77;109279;1274;137347;-61
2022/04/04 06:39:00;;;;;;;8.90;6.20;;;;;;;1.15;66.23;99208.38;109356;1274;23881;-60
2022/04/04 06:41:30;;;;;;;11.10;5.10;;;;;;;1.14;66.54;99213.17;109291;1273;137371;-60
2022/04/04 06:43:58;;;;;;;7.70;5.60;;;;;;;1.17;66.33;99215.55;109391;1274;22509;-61
2022/04/04 06:46:26;;;;;;;8.10;5.50;;;;;;;1.21;66.85;99218.65;109396;1274;22407;-61
2022/04/04 06:48:55;;;;;;;9.90;5.80;;;;;;;1.26;66.49;99218.50;109300;1274;138627;-61
2022/04/04 06:51:24;;;;;;;9.40;5.30;;;;;;;1.27;66.12;99221.08;109407;1274;22424;-61
2022/04/04 06:53:53;;;;;;;8.30;5.40;;;;;;;1.29;65.98;99215.91;109274;1273;138138;-61
2022/04/04 06:56:21;;;;;;;9.40;6.60;;;;;;;1.29;65.88;99222.31;109382;1274;22531;-60
2022/04/04 06:58:51;;;;;;;13.20;6.10;;;;;;;1.27;65.88;99226.60;109419;1274;23051;-61
2022/04/04 07:01:20;;;;;;;10.90;5.70;;;;;;;1.30;65.70;99227.50;109293;1274;137129;-61
2022/04/04 07:03:48;;;;;;;9.30;5.80;;;;;;;1.34;66.00;99227.66;109215;1274;22553;-61
2022/04/04 07:06:17;;;;;;;10.80;5.80;;;;;;;1.41;65.91;99232.52;109313;1274;137387;-61
2022/04/04 07:08:47;;;;;;;15.90;7.20;;;;;;;1.47;66.05;99234.15;109146;1274;22490;-61
2022/04/04 07:11:16;;;;;;;14.90;6.50;;;;;;;1.56;66.41;99235.16;109185;1275;137332;-61
2022/04/04 07:13:49;;;;;;;6.60;4.30;;;;;;;1.66;66.41;99233.54;109401;1274;23287;-61
2022/04/04 07:16:17;;;;;;;8.40;4.70;;;;;;;1.76;66.60;99237.15;109380;1274;22486;-61
2022/04/04 07:19:09;;;;;;;6.70;5.00;;;;;;;1.86;65.40;99238.85;109304;1274;137504;-61
2022/04/04 07:21:37;;;;;;;9.40;5.60;;;;;;;1.89;64.33;99238.83;109368;1274;22590;-61
2022/04/04 07:24:07;;;;;;;7.80;5.20;;;;;;;1.90;64.30;99244.61;109291;1274;137981;-61
2022/04/04 07:26:36;;;;;;;7.70;5.00;;;;;;;1.92;64.17;99245.36;109426;1274;22532;-61
2022/04/04 07:29:06;;;;;;;8.50;5.40;;;;;;;1.97;64.41;99243.50;109138;1274;22435;-61
2022/04/04 07:31:36;;;;;;;7.70;5.40;;;;;;;2.04;65.16;99240.27;109262;1274;138031;-61
2022/04/04 07:34:06;;;;;;;11.10;6.70;;;;;;;2.15;64.58;99242.39;109378;1274;22245;-61
2022/04/04 07:36:35;;;;;;;8.70;5.10;;;;;;;2.22;64.03;99243.52;106711;1274;137294;-60
2022/04/04 07:39:04;;;;;;;9.00;5.50;;;;;;;2.28;64.18;99244.13;104935;1274;25156;-60
2022/04/04 07:41:34;;;;;;;9.50;5.20;;;;;;;2.36;63.95;99245.00;109296;1274;137100;-61
2022/04/04 07:44:04;;;;;;;7.60;5.20;;;;;;;2.44;63.64;99246.39;109388;1274;23104;-61
2022/04/04 07:46:35;;;;;;;8.40;5.30;;;;;;;2.53;63.06;99250.70;109399;1274;23408;-60
2022/04/04 07:49:04;;;;;;;7.90;5.30;;;;;;;2.60;62.24;99253.41;109322;1274;137228;-60
2022/04/04 07:51:33;;;;;;;8.30;4.90;;;;;;;2.65;61.81;99256.73;109393;1274;22482;-62
2022/04/04 07:54:02;;;;;;;11.00;5.20;;;;;;;2.73;61.17;99256.87;109217;1274;137172;-59
2022/04/04 07:56:30;;;;;;;7.60;4.60;;;;;;;2.78;59.35;99256.55;109391;1274;22409;-59
2022/04/04 07:58:59;;;;;;;5.70;4.60;;;;;;;2.81;58.51;99258.48;109417;1274;23110;-59
2022/04/04 08:01:34;;;;;;;13.80;5.50;;;;;;;2.85;57.99;99261.70;109259;1274;139040;-59
2022/04/04 08:04:12;;;;;;;;;;;;;;;2.88;57.26;99266.86;109378;1274;22552;-59
2022/04/04 08:06:41;;;;;;;7.60;3.80;;;;;;;2.90;57.30;99263.98;109305;1272;124518;-59
2022/04/04 08:09:10;;;;;;;8.10;3.90;;;;;;;2.94;55.02;99263.91;108983;1274;22463;-61
2022/04/04 08:11:38;;;;;;;7.20;4.00;;;;;;;2.97;54.36;99261.80;109289;1274;137087;-63
2022/04/04 08:14:26;;;;;;;;;;;;;;;2.99;52.64;99263.83;109405;1274;22486;-60
2022/04/04 08:16:55;;;;;;;6.40;4.10;;;;;;;2.99;52.60;99259.06;109398;1274;22414;-63
2022/04/04 08:19:25;;;;;;;6.00;3.70;;;;;;;3.02;52.17;99256.93;109261;1274;137558;-63
2022/04/04 08:21:57;;;;;;;5.90;3.70;;;;;;;3.05;50.39;99255.15;109393;1274;22436;-63
2022/04/04 08:24:25;;;;;;;6.90;3.50;;;;;;;3.09;51.19;99250.14;109291;1274;138274;-64
2022/04/04 08:26:56;;;;;;;6.00;3.40;;;;;;;3.11;49.65;99252.94;109295;1275;22440;-63
2022/04/04 08:29:27;;;;;;;7.40;3.80;;;;;;;3.10;49.22;99255.52;109000;1275;137462;-63
2022/04/04 08:31:55;;;;;;;5.90;4.00;;;;;;;3.10;48.97;99253.11;109182;1274;23175;-63
2022/04/04 08:34:27;;;;;;;5.60;2.80;;;;;;;3.10;49.79;99249.84;109370;1274;22517;-64
2022/04/04 08:36:57;;;;;;;4.80;2.90;;;;;;;3.14;47.19;99252.56;109041;1277;138462;-64
2022/04/04 08:39:25;;;;;;;7.20;2.70;;;;;;;3.14;46.63;99249.37;109369;1274;22412;-63
2022/04/04 08:41:57;;;;;;;4.10;3.10;;;;;;;3.14;45.98;99251.44;109301;1273;137856;-64
2022/04/04 08:44:25;;;;;;;4.30;3.10;;;;;;;3.12;45.30;99250.82;109388;1274;22453;-63
2022/04/04 08:46:56;;;;;;;4.60;3.20;;;;;;;3.08;46.20;99255.73;109370;1274;22260;-61
2022/04/04 08:49:25;;;;;;;5.30;3.50;;;;;;;3.05;46.58;99258.30;109226;1274;137978;-61
2022/04/04 08:51:53;;;;;;;5.00;3.10;;;;;;;3.05;47.42;99251.59;109099;1274;22430;-61
2022/04/04 08:54:22;;;;;;;9.80;3.50;;;;;;;3.11;48.56;99247.89;109097;1274;137448;-61
2022/04/04 08:56:50;;;;;;;6.30;2.90;;;;;;;3.23;47.27;99250.39;109401;1274;23515;-61
2022/04/04 08:59:22;;;;;;;5.10;2.60;;;;;;;3.37;44.19;99252.69;109267;1274;137549;-61
2022/04/04 09:01:50;;;;;;;4.50;3.00;;;;;;;3.43;44.26;99249.49;109391;1274;22506;-60
2022/04/04 09:04:19;;;;;;;4.90;2.90;;;;;;;3.46;43.52;99247.45;108988;1278;22436;-61
2022/04/04 09:06:53;;;;;;;9.60;2.80;;;;;;;3.43;43.51;99242.83;109269;1274;136920;-61
2022/04/04 09:09:26;;;;;;;4.90;2.50;;;;;;;3.41;44.29;99243.42;109387;1274;22426;-61
2022/04/04 09:12:09;;;;;;;5.70;2.50;;;;;;;3.43;44.14;99246.60;109265;1274;138057;-61
2022/04/04 09:14:52;;;;;;;7.10;3.30;;;;;;;3.43;44.67;99238.85;109381;1274;22492;-61
2022/04/04 09:17:25;;;;;;;5.40;2.70;;;;;;;3.47;44.86;99235.94;109294;1274;137092;-61
2022/04/04 09:19:53;;;;;;;3.50;2.30;;;;;;;3.54;43.97;99237.64;109408;1274;22502;-61
2022/04/04 09:22:23;;;;;;;3.60;2.20;;;;;;;3.60;43.86;99246.39;109310;1274;22619;-61
2022/04/04 09:24:55;;;;;;;9.20;3.30;;;;;;;3.63;43.06;99244.05;109287;1274;137803;-61
2022/04/04 09:27:31;;;;;;;6.10;2.60;;;;;;;3.64;44.25;99244.14;109385;1274;22368;-61
2022/04/04 09:30:05;;;;;;;5.40;3.10;;;;;;;3.68;44.45;99240.26;109260;1273;137165;-61
2022/04/04 09:32:38;;;;;;;4.50;2.50;;;;;;;3.76;45.76;99240.60;109374;1274;22263;-58
2022/04/04 09:35:18;;;;;;;4.60;2.50;;;;;;;3.86;45.36;99242.55;109360;1274;23169;-61
2022/04/04 09:37:48;;;;;;;4.20;2.20;;;;;;;3.98;45.01;99246.50;109269;1274;136747;-59
2022/04/04 09:40:21;;;;;;;4.60;2.60;;;;;;;4.07;44.61;99242.39;109369;1274;22434;-59
2022/04/04 09:42:51;;;;;;;3.40;2.10;;;;;;;4.14;44.44;99240.36;109249;1273;137456;-59
2022/04/04 09:45:23;;;;;;;3.30;2.10;;;;;;;4.20;44.67;99236.80;109393;1274;22353;-61
2022/04/04 09:48:06;;;;;;;4.00;2.60;;;;;;;4.24;44.44;99232.33;104985;1275;138127;-60
2022/04/04 09:50:48;;;;;;;3.80;2.40;;;;;;;4.29;44.95;99237.10;104994;1276;24413;-60
2022/04/04 09:53:21;;;;;;;8.40;2.50;;;;;;;4.37;44.45;99231.69;109413;1274;22383;-61
2022/04/04 09:56:00;;;;;;;8.10;2.40;;;;;;;4.44;44.88;99228.74;109251;1274;137719;-60
2022/04/04 09:58:30;;;;;;;5.10;2.30;;;;;;;4.52;44.76;99220.59;109390;1274;22541;-60
2022/04/04 10:00:58;;;;;;;4.00;2.00;;;;;;;4.61;45.47;99223.94;109285;1274;136972;-60
2022/04/04 10:03:30;;;;;;;3.70;2.10;;;;;;;4.74;46.33;99223.23;109374;1274;22455;-60
2022/04/04 10:06:09;;;;;;;3.30;2.50;;;;;;;4.87;45.26;99222.19;109266;1274;138279;-60
2022/04/04 10:08:38;;;;;;;3.50;2.30;;;;;;;4.95;44.84;99228.50;108432;1274;24288;-60
2022/04/04 10:11:09;;;;;;;24.90;5.60;;;;;;;5.00;45.48;99225.70;109389;1274;23091;-60
2022/04/04 10:13:38;;;;;;;7.30;2.70;;;;;;;5.06;46.16;99229.64;109260;1274;137131;-60
2022/04/04 10:16:06;;;;;;;5.30;2.60;;;;;;;5.10;44.95;99230.28;109365;1274;22529;-60
2022/04/04 10:18:38;;;;;;;4.50;2.50;;;;;;;5.07;45.72;99225.09;109202;1275;136904;-60
2022/04/04 10:21:08;;;;;;;5.40;2.70;;;;;;;5.08;45.73;99226.66;109140;1276;22552;-60
2022/04/04 10:23:39;;;;;;;4.10;2.40;;;;;;;5.12;45.65;99227.73;109097;1274;138373;-60
2022/04/04 10:26:08;;;;;;;4.30;2.30;;;;;;;5.17;44.85;99228.16;109201;1275;22391;-60
2022/04/04 10:28:38;;;;;;;4.30;2.20;;;;;;;5.18;44.65;99233.23;109396;1274;22530;-60
2022/04/04 10:31:16;;;;;;;4.80;2.60;;;;;;;5.10;43.45;99232.52;109279;1273;136906;-60
2022/04/04 10:33:46;;;;;;;3.60;2.10;;;;;;;4.92;43.96;99235.48;109333;1274;23182;-60
2022/04/04 10:36:21;;;;;;;3.70;2.40;;;;;;;4.78;44.30;99234.60;109257;1274;137079;-60
2022/04/04 10:38:54;;;;;;;3.20;2.10;;;;;;;4.69;44.95;99235.25;109397;1274;22401;-60
2022/04/04 10:41:32;;;;;;;4.60;2.50;;;;;;;4.60;45.07;99232.13;109375;1274;22544;-60
2022/04/04 10:44:01;;;;;;;3.70;2.50;;;;;;;4.54;45.14;99238.74;109285;1274;136983;-60
2022/04/04 10:46:29;;;;;;;5.90;2.80;;;;;;;4.51;45.46;99232.43;109363;1274;22966;-60
2022/04/04 10:49:02;;;;;;;7.80;2.70;;;;;;;4.50;46.05;99231.31;109287;1274;136924;-60
2022/04/04 10:51:35;;;;;;;3.50;2.20;;;;;;;4.50;46.05;99231.39;109209;1274;22435;-60
2022/04/04 10:54:08;;;;;;;6.80;2.30;;;;;;;4.49;46.76;99229.14;109255;1274;137087;-60
2022/04/04 10:56:38;;;;;;;4.70;2.70;;;;;;;4.48;46.72;99229.71;106732;1274;24456;-60
2022/04/04 10:59:16;;;;;;;4.30;2.30;;;;;;;4.52;46.99;99235.38;109377;1274;22450;-60
2022/04/04 11:01:45;;;;;;;4.50;2.40;;;;;;;4.50;46.72;99237.91;109244;1274;137125;-60
2022/04/04 11:04:36;;;;;;;5.90;2.80;;;;;;;4.38;46.29;99230.43;109260;1276;22384;-60
2022/04/04 11:09:57;;;;;;;5.80;2.10;;;;;;;4.22;47.27;99234.92;109405;1274;23479;-60
2022/04/04 11:12:28;;;;;;;4.20;2.30;;;;;;;4.21;46.46;99235.59;109250;1274;138064;-60
2022/04/04 11:15:07;;;;;;;4.00;2.10;;;;;;;4.20;46.72;99232.23;109393;1274;22468;-60
2022/04/04 11:17:59;;;;;;;4.30;2.50;;;;;;;4.24;47.02;99226.64;109407;1274;22530;-60
2022/04/04 11:20:50;;;;;;;6.10;3.00;;;;;;;4.32;46.96;99222.34;109389;1274;22479;-60
2022/04/04 11:23:22;;;;;;;4.70;2.60;;;;;;;4.38;46.43;99224.16;109216;1276;22434;-60
2022/04/04 11:25:54;;;;;;;5.30;3.30;;;;;;;4.40;45.41;99226.09;108003;1274;137656;-60
2022/04/04 11:28:36;;;;;;;10.80;5.60;;;;;;;4.41;45.93;99224.20;109407;1274;23329;-60
2022/04/04 11:31:09;;;;;;;8.50;5.00;;;;;;;4.45;46.51;99221.48;109292;1274;137227;-60
2022/04/04 11:33:54;;;;;;;11.20;4.80;;;;;;;4.54;46.77;99223.39;109352;1274;22519;-60
2022/04/04 11:36:43;;;;;;;4.10;2.50;;;;;;;4.65;46.05;99218.90;109271;1274;137263;-60
2022/04/04 11:39:12;;;;;;;5.00;2.40;;;;;;;4.72;44.12;99216.70;109363;1274;23197;-61
2022/04/04 11:41:46;;;;;;;7.40;3.30;;;;;;;4.76;43.83;99212.54;109266;1274;23215;-60
2022/04/04 11:44:25;;;;;;;4.90;3.60;;;;;;;4.82;44.30;99211.29;109261;1274;136964;-60